Time;durP1;ratioP1;P1;durP2;ratioP2;P2;SDS_P1;SDS_P2;PMS_P1;PMS_P2;Temp;Humidity;BMP_temperature;BMP_pressure;BME280_temperature;BME280_humidity;BME280_pressure;Samples;Min_cycle;Max_cycle;Signal;HPM_P1;HPM_P2
2023/05/19 00:01:00;;;;;;;25.00;10.55;;;;;;;;;;5031315;28;20026;-54
2023/05/19 00:03:26;;;;;;;21.35;9.93;;;;;;;;;;5031358;28;20095;-56
2023/05/19 00:05:53;;;;;;;17.58;10.40;;;;;;;;;;5053179;23;20075;-59
2023/05/19 00:08:19;;;;;;;18.33;10.13;;;;;;;;;;5031469;28;20547;-59
2023/05/19 00:10:46;;;;;;;20.52;10.55;;;;;;;;;;5030145;28;20025;-60
2023/05/19 00:13:12;;;;;;;23.08;10.50;;;;;;;;;;5031330;28;20026;-58
2023/05/19 00:15:38;;;;;;;20.42;10.27;;;;;;;;;;5030141;28;20121;-60
2023/05/19 00:18:07;;;;;;;19.40;10.60;;;;;;;;;;5031363;28;20029;-59
2023/05/19 00:20:33;;;;;;;;;;;;;;;;;;5031826;28;20029;-59
2023/05/19 00:22:59;;;;;;;22.23;10.60;;;;;;;;;;5030288;28;19913;-59
2023/05/19 00:25:25;;;;;;;17.80;10.10;;;;;;;;;;5030014;28;20112;-55
2023/05/19 00:27:51;;;;;;;20.17;10.63;;;;;;;;;;5031660;28;20378;-59
2023/05/19 00:30:17;;;;;;;19.13;10.32;;;;;;;;;;5031920;28;20027;-60
2023/05/19 00:32:43;;;;;;;23.80;11.15;;;;;;;;;;5033532;28;20544;-59
2023/05/19 00:35:10;;;;;;;18.85;10.55;;;;;;;;;;5034463;28;20065;-57
2023/05/19 00:37:36;;;;;;;20.98;10.88;;;;;;;;;;5034735;28;20025;-59
2023/05/19 00:40:04;;;;;;;17.17;10.45;;;;;;;;;;5034617;28;20033;-57
2023/05/19 00:42:31;;;;;;;;;;;;;;;;;;5035206;28;20113;-59
2023/05/19 00:44:57;;;;;;;24.88;10.95;;;;;;;;;;5034584;28;19909;-57
2023/05/19 00:47:23;;;;;;;23.02;10.65;;;;;;;;;;5034672;28;20029;-59
2023/05/19 00:49:49;;;;;;;21.67;10.50;;;;;;;;;;5034975;28;20021;-58
2023/05/19 00:52:15;;;;;;;19.00;9.88;;;;;;;;;;5033317;28;20032;-59
2023/05/19 00:54:42;;;;;;;19.55;9.95;;;;;;;;;;5033893;28;20025;-57
2023/05/19 00:57:08;;;;;;;22.73;11.15;;;;;;;;;;5034459;28;20382;-59
2023/05/19 00:59:35;;;;;;;20.48;9.50;;;;;;;;;;5033080;28;20029;-57
2023/05/19 01:02:01;;;;;;;22.02;11.13;;;;;;;;;;5034297;28;20106;-56
2023/05/19 01:04:28;;;;;;;18.98;9.63;;;;;;;;;;5034009;28;20101;-54
2023/05/19 01:06:57;;;;;;;18.05;9.25;;;;;;;;;;5032690;28;20029;-56
2023/05/19 01:09:23;;;;;;;22.80;10.57;;;;;;;;;;5034141;28;20025;-58
2023/05/19 01:11:50;;;;;;;22.02;10.35;;;;;;;;;;5034154;28;20026;-59
2023/05/19 01:14:16;;;;;;;23.92;10.65;;;;;;;;;;5033995;28;20523;-59
2023/05/19 01:17:04;;;;;;;19.88;10.05;;;;;;;;;;5032700;28;20056;-56
2023/05/19 01:19:30;;;;;;;22.73;10.82;;;;;;;;;;5034176;28;20375;-53
2023/05/19 01:21:59;;;;;;;19.00;10.27;;;;;;;;;;5032536;28;20052;-56
2023/05/19 01:24:41;;;;;;;19.27;10.20;;;;;;;;;;5033689;28;20021;-58
2023/05/19 01:27:13;;;;;;;20.98;10.48;;;;;;;;;;5033794;28;20021;-56
2023/05/19 01:29:57;;;;;;;17.90;9.75;;;;;;;;;;5033673;28;20033;-52
2023/05/19 01:32:24;;;;;;;17.83;10.00;;;;;;;;;;5033735;28;20026;-53
2023/05/19 01:34:52;;;;;;;21.38;10.95;;;;;;;;;;5033288;28;20037;-54
2023/05/19 01:37:18;;;;;;;21.08;9.95;;;;;;;;;;5033552;28;20086;-57
2023/05/19 01:39:45;;;;;;;19.88;9.65;;;;;;;;;;5033544;28;20055;-58
2023/05/19 01:42:12;;;;;;;22.88;9.85;;;;;;;;;;5032607;28;20071;-57
2023/05/19 01:44:38;;;;;;;21.13;10.57;;;;;;;;;;5033231;28;20041;-55
2023/05/19 01:47:04;;;;;;;19.92;10.45;;;;;;;;;;5029567;28;20025;-59
2023/05/19 01:49:30;;;;;;;18.73;10.45;;;;;;;;;;5026653;28;20021;-54
2023/05/19 01:51:56;;;;;;;21.35;10.75;;;;;;;;;;5013608;28;20038;-57
2023/05/19 01:54:22;;;;;;;21.33;11.15;;;;;;;;;;5012032;28;20030;-59
2023/05/19 01:56:57;;;;;;;24.58;10.95;;;;;;;;;;5025303;28;20137;-59
2023/05/19 01:59:33;;;;;;;20.85;10.10;;;;;;;;;;5029481;28;20037;-59
2023/05/19 02:02:01;;;;;;;21.35;11.23;;;;;;;;;;5033132;28;20628;-54
2023/05/19 02:05:00;;;;;;;20.77;12.02;;;;;;;;;;5032920;28;20033;-58
2023/05/19 02:07:35;;;;;;;21.27;10.93;;;;;;;;;;4999569;28;20485;-55
2023/05/19 02:10:29;;;;;;;25.02;11.20;;;;;;;;;;5028151;28;20028;-56
2023/05/19 02:12:58;;;;;;;21.38;9.65;;;;;;;;;;5011749;28;20033;-58
2023/05/19 02:15:25;;;;;;;19.65;10.65;;;;;;;;;;5013015;28;20036;-57
2023/05/19 02:17:53;;;;;;;19.40;10.25;;;;;;;;;;5022043;28;20018;-57
2023/05/19 02:20:20;;;;;;;21.10;10.82;;;;;;;;;;5024341;28;20148;-59
2023/05/19 02:22:47;;;;;;;23.97;11.57;;;;;;;;;;5031556;28;20122;-57
2023/05/19 02:25:13;;;;;;;20.60;10.43;;;;;;;;;;5032633;28;20091;-59
2023/05/19 02:27:41;;;;;;;20.30;10.38;;;;;;;;;;5032752;28;20049;-56
2023/05/19 02:30:08;;;;;;;22.35;11.48;;;;;;;;;;5033550;28;20059;-55
2023/05/19 02:32:35;;;;;;;19.95;10.45;;;;;;;;;;5048540;28;20035;-55
2023/05/19 02:35:01;;;;;;;21.42;11.15;;;;;;;;;;5039739;28;20060;-55
2023/05/19 02:37:29;;;;;;;21.20;11.10;;;;;;;;;;5032451;28;20040;-59
2023/05/19 02:39:56;;;;;;;21.02;10.45;;;;;;;;;;5032739;28;20028;-59
2023/05/19 02:42:22;;;;;;;21.08;10.43;;;;;;;;;;5032402;28;20504;-59
2023/05/19 02:44:48;;;;;;;21.30;10.35;;;;;;;;;;5032221;28;20037;-55
2023/05/19 02:47:13;;;;;;;20.83;10.32;;;;;;;;;;5032027;28;20028;-58
2023/05/19 02:49:41;;;;;;;20.88;11.40;;;;;;;;;;5032252;28;20139;-58
2023/05/19 02:52:07;;;;;;;22.90;10.80;;;;;;;;;;5032125;28;20034;-55
2023/05/19 02:54:34;;;;;;;18.95;10.65;;;;;;;;;;5031987;28;20557;-56
2023/05/19 02:57:00;;;;;;;20.88;11.00;;;;;;;;;;5030717;28;20033;-59
2023/05/19 02:59:26;;;;;;;20.85;10.98;;;;;;;;;;5030841;28;20025;-58
2023/05/19 03:01:56;;;;;;;20.92;11.30;;;;;;;;;;5032069;28;20431;-55
2023/05/19 03:04:22;;;;;;;20.55;10.35;;;;;;;;;;5030642;28;20030;-56
2023/05/19 03:06:48;;;;;;;26.15;11.65;;;;;;;;;;5031783;28;20103;-58
2023/05/19 03:09:14;;;;;;;21.58;10.55;;;;;;;;;;5032039;28;20025;-57
2023/05/19 03:11:40;;;;;;;23.77;10.88;;;;;;;;;;5032059;28;20029;-58
2023/05/19 03:14:10;;;;;;;21.55;10.93;;;;;;;;;;5031685;28;20452;-57
2023/05/19 03:16:36;;;;;;;20.83;10.95;;;;;;;;;;5031916;28;20390;-58
2023/05/19 03:19:02;;;;;;;22.77;10.90;;;;;;;;;;5031836;28;20026;-56
2023/05/19 03:21:29;;;;;;;21.60;10.48;;;;;;;;;;5031912;28;20034;-56
2023/05/19 03:23:55;;;;;;;22.65;11.27;;;;;;;;;;5030426;28;20044;-59
2023/05/19 03:26:21;;;;;;;21.58;10.77;;;;;;;;;;5031658;28;20021;-56
2023/05/19 03:28:47;;;;;;;23.38;11.18;;;;;;;;;;5031710;28;20021;-57
2023/05/19 03:31:13;;;;;;;21.77;10.65;;;;;;;;;;5031625;28;20053;-59
2023/05/19 03:33:39;;;;;;;20.05;11.13;;;;;;;;;;5031527;28;20033;-57
2023/05/19 03:36:06;;;;;;;24.73;11.57;;;;;;;;;;5030954;28;20516;-58
2023/05/19 03:38:32;;;;;;;23.70;10.95;;;;;;;;;;5031696;28;20056;-59
2023/05/19 03:40:58;;;;;;;22.55;11.30;;;;;;;;;;5031414;28;20026;-58
2023/05/19 03:43:24;;;;;;;22.48;10.18;;;;;;;;;;5031225;28;20521;-58
2023/05/19 03:45:50;;;;;;;19.65;10.40;;;;;;;;;;5030635;28;20021;-57
2023/05/19 03:48:16;;;;;;;22.17;11.23;;;;;;;;;;5031186;28;20045;-56
2023/05/19 03:50:43;;;;;;;20.65;10.15;;;;;;;;;;5030098;28;20112;-59
2023/05/19 03:53:09;;;;;;;21.00;10.80;;;;;;;;;;5031542;28;20018;-59
2023/05/19 03:55:36;;;;;;;21.15;10.25;;;;;;;;;;5030929;28;20083;-54
2023/05/19 03:58:02;;;;;;;23.80;10.98;;;;;;;;;;5031225;28;20032;-55
2023/05/19 04:00:28;;;;;;;19.63;10.35;;;;;;;;;;5031587;28;20025;-56
2023/05/19 04:02:54;;;;;;;22.20;10.93;;;;;;;;;;5031387;28;20372;-54
2023/05/19 04:05:20;;;;;;;20.10;10.32;;;;;;;;;;5031854;28;20030;-56
2023/05/19 04:07:46;;;;;;;25.63;11.40;;;;;;;;;;5035020;28;20127;-58
2023/05/19 04:10:12;;;;;;;21.67;11.75;;;;;;;;;;5033643;28;20025;-55
2023/05/19 04:12:38;;;;;;;22.35;10.15;;;;;;;;;;5033917;28;20029;-58
2023/05/19 04:15:10;;;;;;;24.35;11.88;;;;;;;;;;5033662;28;20117;-57
2023/05/19 04:17:36;;;;;;;21.95;10.02;;;;;;;;;;5035326;28;20087;-59
2023/05/19 04:20:02;;;;;;;23.17;10.77;;;;;;;;;;5035116;28;20083;-58
2023/05/19 04:22:28;;;;;;;19.95;10.18;;;;;;;;;;5035010;28;20111;-57
2023/05/19 04:24:55;;;;;;;23.05;10.40;;;;;;;;;;5034706;28;20018;-59
2023/05/19 04:27:21;;;;;;;23.17;11.18;;;;;;;;;;5034932;28;20079;-57
2023/05/19 04:29:47;;;;;;;22.77;10.57;;;;;;;;;;5034973;28;20480;-58
2023/05/19 04:32:16;;;;;;;20.75;9.60;;;;;;;;;;5034828;28;20025;-59
2023/05/19 04:34:44;;;;;;;20.05;11.63;;;;;;;;;;5037100;28;20093;-57
2023/05/19 04:37:11;;;;;;;24.67;10.15;;;;;;;;;;5045718;28;20025;-54
2023/05/19 04:39:44;;;;;;;20.67;10.68;;;;;;;;;;5036241;28;20405;-53
2023/05/19 04:42:10;;;;;;;22.25;10.13;;;;;;;;;;5034698;28;20528;-59
2023/05/19 04:44:38;;;;;;;21.08;10.35;;;;;;;;;;5034211;28;20446;-57
2023/05/19 04:47:05;;;;;;;18.88;9.93;;;;;;;;;;5034372;28;20389;-56
2023/05/19 04:49:31;;;;;;;20.92;10.43;;;;;;;;;;5033076;28;20025;-54
2023/05/19 04:51:57;;;;;;;20.17;10.38;;;;;;;;;;5034395;28;20029;-59
2023/05/19 04:54:23;;;;;;;18.95;10.23;;;;;;;;;;5034145;28;20064;-55
2023/05/19 04:56:49;;;;;;;22.13;11.85;;;;;;;;;;5033964;28;20030;-54
2023/05/19 04:59:15;;;;;;;21.15;11.30;;;;;;;;;;5034065;28;20033;-56
2023/05/19 05:01:41;;;;;;;21.40;10.55;;;;;;;;;;5032801;28;20466;-56
2023/05/19 05:04:07;;;;;;;24.80;11.05;;;;;;;;;;5033927;28;20115;-54
2023/05/19 05:06:37;;;;;;;21.35;10.77;;;;;;;;;;5033923;28;20041;-57
2023/05/19 05:09:03;;;;;;;19.55;10.43;;;;;;;;;;5034095;28;20092;-55
2023/05/19 05:11:29;;;;;;;20.60;10.40;;;;;;;;;;5034112;28;20021;-58
2023/05/19 05:13:56;;;;;;;19.35;10.95;;;;;;;;;;5033875;28;20021;-56
2023/05/19 05:16:23;;;;;;;19.45;10.65;;;;;;;;;;5033295;28;20029;-58
2023/05/19 05:18:49;;;;;;;20.60;9.73;;;;;;;;;;5032078;28;20067;-55
2023/05/19 05:21:15;;;;;;;20.08;10.15;;;;;;;;;;5031550;28;20033;-58
2023/05/19 05:23:41;;;;;;;20.55;10.20;;;;;;;;;;5023582;28;20557;-58
2023/05/19 05:26:10;;;;;;;21.52;11.38;;;;;;;;;;5026197;28;20028;-56
2023/05/19 05:28:36;;;;;;;;;;;;;;;;;;5032867;28;20025;-59
2023/05/19 05:31:02;;;;;;;20.00;10.05;;;;;;;;;;5033344;28;20566;-59
2023/05/19 05:33:28;;;;;;;22.10;10.93;;;;;;;;;;5033008;28;20037;-59
2023/05/19 05:35:54;;;;;;;21.65;10.80;;;;;;;;;;5033076;28;20385;-58
2023/05/19 05:38:20;;;;;;;18.27;10.02;;;;;;;;;;5032038;28;20026;-60
2023/05/19 05:40:46;;;;;;;19.35;10.45;;;;;;;;;;5033492;28;20129;-59
2023/05/19 05:43:12;;;;;;;24.67;11.02;;;;;;;;;;5033276;28;20033;-57
2023/05/19 05:45:37;;;;;;;18.48;10.30;;;;;;;;;;5032850;28;20096;-59
2023/05/19 05:48:04;;;;;;;19.42;10.68;;;;;;;;;;5033148;28;20025;-59
2023/05/19 05:50:30;;;;;;;19.80;10.25;;;;;;;;;;5033105;28;20484;-59
2023/05/19 05:52:57;;;;;;;18.42;10.27;;;;;;;;;;5033046;28;20029;-56
2023/05/19 05:55:23;;;;;;;20.77;10.88;;;;;;;;;;5032986;28;20026;-58
2023/05/19 05:57:49;;;;;;;19.30;10.60;;;;;;;;;;5032850;28;20033;-59
2023/05/19 06:00:15;;;;;;;21.08;10.80;;;;;;;;;;5032494;28;20362;-60
2023/05/19 06:02:46;;;;;;;19.23;10.68;;;;;;;;;;5032673;28;20033;-59
2023/05/19 06:05:12;;;;;;;18.67;10.65;;;;;;;;;;5032594;28;20064;-58
2023/05/19 06:07:39;;;;;;;20.25;10.93;;;;;;;;;;5032646;28;20511;-57
2023/05/19 06:10:05;;;;;;;21.23;10.98;;;;;;;;;;5057746;23;20108;-60
2023/05/19 06:12:31;;;;;;;20.83;10.52;;;;;;;;;;5000111;28;20030;-60
2023/05/19 06:14:57;;;;;;;18.23;10.45;;;;;;;;;;5017740;28;20026;-60
2023/05/19 06:17:23;;;;;;;19.33;10.82;;;;;;;;;;4999362;28;20478;-60
2023/05/19 06:19:49;;;;;;;18.88;9.45;;;;;;;;;;5021169;28;20022;-59
2023/05/19 06:22:15;;;;;;;23.98;11.48;;;;;;;;;;5025638;28;20033;-59
2023/05/19 06:24:41;;;;;;;21.77;10.95;;;;;;;;;;5016914;28;20026;-59
2023/05/19 06:27:07;;;;;;;18.58;11.23;;;;;;;;;;5017538;28;20029;-60
2023/05/19 06:29:33;;;;;;;20.10;10.45;;;;;;;;;;5017001;28;20029;-59
2023/05/19 06:31:59;;;;;;;23.13;10.80;;;;;;;;;;5018142;28;20085;-59
2023/05/19 06:34:25;;;;;;;18.92;10.50;;;;;;;;;;5016675;28;20112;-60
2023/05/19 06:36:51;;;;;;;20.77;10.80;;;;;;;;;;5017031;28;20100;-60
2023/05/19 06:39:17;;;;;;;18.13;10.77;;;;;;;;;;4999644;28;20034;-60
2023/05/19 06:41:43;;;;;;;20.42;11.02;;;;;;;;;;5016052;28;20026;-56
2023/05/19 06:44:09;;;;;;;18.90;11.23;;;;;;;;;;5016882;28;20036;-61
2023/05/19 06:46:35;;;;;;;19.48;11.27;;;;;;;;;;5018854;28;20486;-64
2023/05/19 06:49:01;;;;;;;18.17;10.63;;;;;;;;;;5018152;28;20482;-62
2023/05/19 06:51:27;;;;;;;18.73;10.82;;;;;;;;;;5018264;28;20030;-63
2023/05/19 06:53:53;;;;;;;25.88;11.70;;;;;;;;;;5021738;28;20040;-60
2023/05/19 06:56:21;;;;;;;20.80;11.10;;;;;;;;;;5021073;28;20022;-61
2023/05/19 06:58:47;;;;;;;21.25;10.23;;;;;;;;;;5021030;28;20030;-62
2023/05/19 07:01:13;;;;;;;18.05;10.32;;;;;;;;;;5020995;28;20024;-60
2023/05/19 07:03:39;;;;;;;20.40;11.77;;;;;;;;;;5013594;28;20026;-54
2023/05/19 07:06:05;;;;;;;17.15;10.07;;;;;;;;;;5010305;28;20042;-53
2023/05/19 07:08:31;;;;;;;18.48;11.20;;;;;;;;;;5010012;28;20029;-54
2023/05/19 07:10:57;;;;;;;22.50;11.18;;;;;;;;;;5010384;28;20070;-57
2023/05/19 07:13:23;;;;;;;18.25;9.45;;;;;;;;;;4992642;28;20030;-55
2023/05/19 07:15:51;;;;;;;19.98;10.07;;;;;;;;;;5009944;28;20044;-57
2023/05/19 07:18:17;;;;;;;19.70;11.10;;;;;;;;;;4990713;28;20026;-55
2023/05/19 07:20:43;;;;;;;19.15;10.93;;;;;;;;;;4990881;28;20482;-56
2023/05/19 07:23:09;;;;;;;19.83;11.15;;;;;;;;;;4990589;28;20069;-58
2023/05/19 07:25:35;;;;;;;18.95;11.30;;;;;;;;;;4990344;28;20089;-55
2023/05/19 07:28:01;;;;;;;18.23;10.85;;;;;;;;;;5002502;28;20488;-53
2023/05/19 07:30:27;;;;;;;18.42;11.23;;;;;;;;;;5013143;28;20026;-56
2023/05/19 07:32:53;;;;;;;17.80;11.23;;;;;;;;;;5013260;28;20029;-57
2023/05/19 07:35:21;;;;;;;19.85;10.95;;;;;;;;;;5009946;28;20030;-57
2023/05/19 07:37:47;;;;;;;17.48;11.20;;;;;;;;;;5010243;28;20045;-55
2023/05/19 07:40:13;;;;;;;19.23;11.10;;;;;;;;;;5009446;28;20663;-49
2023/05/19 07:42:40;;;;;;;21.33;11.60;;;;;;;;;;5010011;28;20030;-56
2023/05/19 07:45:06;;;;;;;23.27;12.25;;;;;;;;;;5008489;28;20117;-55
2023/05/19 07:47:32;;;;;;;17.95;11.07;;;;;;;;;;5009980;28;20030;-54
2023/05/19 07:49:58;;;;;;;18.25;10.82;;;;;;;;;;5015366;28;20037;-58
2023/05/19 07:52:24;;;;;;;18.25;10.88;;;;;;;;;;5015202;28;20030;-59
2023/05/19 07:54:50;;;;;;;19.02;10.77;;;;;;;;;;5013088;28;20030;-58
2023/05/19 07:57:17;;;;;;;19.02;11.05;;;;;;;;;;5015390;28;20398;-55
2023/05/19 07:59:43;;;;;;;18.17;10.80;;;;;;;;;;5010568;28;20026;-54
2023/05/19 08:02:09;;;;;;;19.52;11.38;;;;;;;;;;5014037;28;20033;-59
2023/05/19 08:04:35;;;;;;;17.80;11.48;;;;;;;;;;5009788;28;20404;-54
2023/05/19 08:07:02;;;;;;;20.20;11.45;;;;;;;;;;5010033;28;20053;-59
2023/05/19 08:09:28;;;;;;;21.55;10.88;;;;;;;;;;5009702;28;20037;-56
2023/05/19 08:11:54;;;;;;;18.15;11.35;;;;;;;;;;5009693;28;20033;-58
2023/05/19 08:14:21;;;;;;;16.77;10.80;;;;;;;;;;5009541;28;20068;-59
2023/05/19 08:16:47;;;;;;;18.52;10.38;;;;;;;;;;5009576;28;20378;-54
2023/05/19 08:19:13;;;;;;;19.33;10.30;;;;;;;;;;5009283;28;20029;-56
2023/05/19 08:21:41;;;;;;;18.15;10.18;;;;;;;;;;5010486;28;20414;-54
2023/05/19 08:24:07;;;;;;;19.30;10.90;;;;;;;;;;5010690;28;20080;-54
2023/05/19 08:26:33;;;;;;;17.48;10.50;;;;;;;;;;5010651;28;20026;-54
2023/05/19 08:28:59;;;;;;;17.05;10.82;;;;;;;;;;5010074;28;20141;-54
2023/05/19 08:31:25;;;;;;;18.40;11.45;;;;;;;;;;5010238;28;20484;-56
2023/05/19 08:33:51;;;;;;;18.33;11.70;;;;;;;;;;5010171;28;20109;-59
2023/05/19 08:36:17;;;;;;;18.40;11.68;;;;;;;;;;5009737;28;20097;-56
2023/05/19 08:38:43;;;;;;;20.05;11.82;;;;;;;;;;5010044;28;20026;-60
2023/05/19 08:41:10;;;;;;;18.50;11.38;;;;;;;;;;4992635;28;20022;-58
2023/05/19 08:43:36;;;;;;;19.48;11.30;;;;;;;;;;5021192;28;20029;-61
2023/05/19 08:46:03;;;;;;;19.20;11.90;;;;;;;;;;5029526;28;20021;-61
2023/05/19 08:48:30;;;;;;;17.55;11.45;;;;;;;;;;5030001;28;20034;-60
2023/05/19 08:51:14;;;;;;;21.60;11.43;;;;;;;;;;5030078;28;20533;-61
2023/05/19 08:53:42;;;;;;;18.65;11.20;;;;;;;;;;5033024;28;20448;-61
2023/05/19 08:56:12;;;;;;;17.58;11.32;;;;;;;;;;5033167;28;20025;-61
2023/05/19 08:58:40;;;;;;;17.95;11.30;;;;;;;;;;5033105;28;20099;-60
2023/05/19 09:01:06;;;;;;;20.52;11.90;;;;;;;;;;5032840;28;20030;-61
2023/05/19 09:03:37;;;;;;;20.80;12.52;;;;;;;;;;5033106;28;20033;-61
2023/05/19 09:06:07;;;;;;;17.98;10.98;;;;;;;;;;5032638;28;20022;-59
2023/05/19 09:08:34;;;;;;;18.13;11.57;;;;;;;;;;5032364;28;20032;-61
2023/05/19 09:11:00;;;;;;;18.67;11.00;;;;;;;;;;5032746;28;20434;-60
2023/05/19 09:13:26;;;;;;;16.48;11.20;;;;;;;;;;5033021;28;20441;-61
2023/05/19 09:15:52;;;;;;;16.48;11.10;;;;;;;;;;5014416;28;20025;-59
2023/05/19 09:18:18;;;;;;;20.50;11.30;;;;;;;;;;5014488;28;20109;-58
2023/05/19 09:20:45;;;;;;;17.88;11.40;;;;;;;;;;5032812;28;20056;-54
2023/05/19 09:23:12;;;;;;;21.38;11.18;;;;;;;;;;5032341;28;20025;-59
2023/05/19 09:25:51;;;;;;;20.13;11.65;;;;;;;;;;5032140;28;20021;-58
2023/05/19 09:28:24;;;;;;;18.15;11.32;;;;;;;;;;5031938;28;20025;-58
2023/05/19 09:30:58;;;;;;;18.50;11.55;;;;;;;;;;5032161;28;20508;-59
2023/05/19 09:33:23;;;;;;;17.40;11.60;;;;;;;;;;5032035;28;20030;-59
2023/05/19 09:35:49;;;;;;;22.15;12.40;;;;;;;;;;5031848;28;20116;-59
2023/05/19 09:38:20;;;;;;;18.42;11.65;;;;;;;;;;5031739;28;20026;-60
2023/05/19 09:40:48;;;;;;;18.38;12.13;;;;;;;;;;5032067;28;20030;-60
2023/05/19 09:43:14;;;;;;;;;;;;;;;;;;5034062;28;20025;-61
2023/05/19 09:45:40;;;;;;;16.25;11.07;;;;;;;;;;5033390;28;19916;-58
2023/05/19 09:48:06;;;;;;;19.02;12.65;;;;;;;;;;5015591;28;20021;-60
2023/05/19 09:50:32;;;;;;;19.77;12.40;;;;;;;;;;5032961;28;20053;-60
2023/05/19 09:52:59;;;;;;;18.27;11.90;;;;;;;;;;5032398;28;20025;-59
2023/05/19 09:55:25;;;;;;;18.90;11.65;;;;;;;;;;5032052;28;20028;-55
2023/05/19 09:57:55;;;;;;;18.58;11.60;;;;;;;;;;5031759;28;20052;-60
2023/05/19 10:00:22;;;;;;;16.90;11.57;;;;;;;;;;5032359;28;20374;-60
2023/05/19 10:02:49;;;;;;;17.85;12.52;;;;;;;;;;5032100;28;20025;-58
2023/05/19 10:05:18;;;;;;;17.77;11.63;;;;;;;;;;5031867;28;20120;-61
2023/05/19 10:07:47;;;;;;;25.85;11.50;;;;;;;;;;5032927;28;20077;-59
2023/05/19 10:10:13;;;;;;;;;;;;;;;;;;5033590;28;20435;-60
2023/05/19 10:12:39;;;;;;;21.92;12.32;;;;;;;;;;5014684;28;19956;-59
2023/05/19 10:15:12;;;;;;;19.85;11.57;;;;;;;;;;5012124;28;20029;-59
2023/05/19 10:17:39;;;;;;;18.27;11.93;;;;;;;;;;5012301;28;20026;-60
2023/05/19 10:20:08;;;;;;;16.55;11.73;;;;;;;;;;5011891;28;20091;-54
2023/05/19 10:22:34;;;;;;;16.45;11.60;;;;;;;;;;5012455;28;20029;-56
2023/05/19 10:25:00;;;;;;;19.67;12.32;;;;;;;;;;5011927;28;20033;-58
2023/05/19 10:27:26;;;;;;;18.40;11.50;;;;;;;;;;5012557;28;20068;-59
2023/05/19 10:29:55;;;;;;;19.33;12.50;;;;;;;;;;5012273;28;20038;-58
2023/05/19 10:32:24;;;;;;;17.42;12.43;;;;;;;;;;5012416;28;20026;-57
2023/05/19 10:35:07;;;;;;;16.67;11.70;;;;;;;;;;5012613;28;20065;-59
2023/05/19 10:37:36;;;;;;;17.60;12.50;;;;;;;;;;5012610;28;20092;-53
2023/05/19 10:40:18;;;;;;;18.45;12.45;;;;;;;;;;5012335;28;20026;-53
2023/05/19 10:42:50;;;;;;;20.05;12.93;;;;;;;;;;5016189;28;20022;-54
2023/05/19 10:45:21;;;;;;;17.70;12.15;;;;;;;;;;5032529;28;20029;-53
2023/05/19 10:47:50;;;;;;;18.25;11.88;;;;;;;;;;5032211;28;20116;-58
2023/05/19 10:50:16;;;;;;;18.48;12.32;;;;;;;;;;5014323;28;20041;-55
2023/05/19 10:52:43;;;;;;;18.85;12.00;;;;;;;;;;5031982;28;20033;-56
2023/05/19 10:55:16;;;;;;;20.80;12.75;;;;;;;;;;5032037;28;20029;-54
2023/05/19 10:57:59;;;;;;;19.10;12.40;;;;;;;;;;5032105;28;20033;-58
2023/05/19 11:00:30;;;;;;;16.92;11.82;;;;;;;;;;5031297;28;20032;-59
2023/05/19 11:03:12;;;;;;;16.33;12.00;;;;;;;;;;5030941;28;20053;-61
2023/05/19 11:05:38;;;;;;;18.77;13.35;;;;;;;;;;5019533;28;20585;-59
2023/05/19 11:08:10;;;;;;;20.75;12.55;;;;;;;;;;4992930;28;20058;-59
2023/05/19 11:10:36;;;;;;;17.95;12.18;;;;;;;;;;5014660;28;20091;-58
2023/05/19 11:13:03;;;;;;;18.23;12.50;;;;;;;;;;5016076;28;20055;-58
2023/05/19 11:15:33;;;;;;;19.50;12.68;;;;;;;;;;5020811;28;20063;-58
2023/05/19 11:18:01;;;;;;;18.40;12.45;;;;;;;;;;5010956;28;20022;-58
2023/05/19 11:20:28;;;;;;;18.77;12.70;;;;;;;;;;5010934;28;20022;-59
2023/05/19 11:23:01;;;;;;;18.83;12.77;;;;;;;;;;5011318;28;20037;-59
2023/05/19 11:25:46;;;;;;;20.90;12.38;;;;;;;;;;5022070;28;20045;-60
2023/05/19 11:28:15;;;;;;;17.45;13.20;;;;;;;;;;5011249;28;20028;-56
2023/05/19 11:30:42;;;;;;;18.02;13.27;;;;;;;;;;5011390;28;20026;-60
2023/05/19 11:33:09;;;;;;;19.92;13.73;;;;;;;;;;5011381;28;20379;-53
2023/05/19 11:35:35;;;;;;;18.90;13.25;;;;;;;;;;5010991;28;20037;-58
2023/05/19 11:38:02;;;;;;;17.50;12.98;;;;;;;;;;5011280;28;20093;-56
2023/05/19 11:40:28;;;;;;;16.98;12.90;;;;;;;;;;5011048;28;20028;-59
2023/05/19 11:42:55;;;;;;;16.67;12.10;;;;;;;;;;5011831;28;20041;-57
2023/05/19 11:45:28;;;;;;;17.65;12.55;;;;;;;;;;5009602;28;20053;-60
2023/05/19 11:47:57;;;;;;;17.52;12.95;;;;;;;;;;5010244;28;20124;-60
2023/05/19 11:50:24;;;;;;;17.35;12.43;;;;;;;;;;5010069;28;20038;-59
2023/05/19 11:52:50;;;;;;;19.10;13.18;;;;;;;;;;5010195;28;20061;-58
2023/05/19 11:55:20;;;;;;;19.60;12.60;;;;;;;;;;5007767;28;20049;-59
2023/05/19 11:57:58;;;;;;;16.85;13.30;;;;;;;;;;4992408;28;20026;-60
2023/05/19 12:00:25;;;;;;;18.10;13.43;;;;;;;;;;5009637;28;20033;-60
2023/05/19 12:02:52;;;;;;;17.83;12.60;;;;;;;;;;5009349;28;20505;-59
2023/05/19 12:05:22;;;;;;;17.65;12.90;;;;;;;;;;5027247;28;20084;-60
2023/05/19 12:07:50;;;;;;;16.85;13.07;;;;;;;;;;5022215;28;20621;-58
2023/05/19 12:10:16;;;;;;;17.40;13.07;;;;;;;;;;5010604;28;20030;-59
2023/05/19 12:12:44;;;;;;;19.30;12.93;;;;;;;;;;5009423;28;20494;-57
2023/05/19 12:15:10;;;;;;;18.63;14.27;;;;;;;;;;5008484;28;20034;-58
2023/05/19 12:17:36;;;;;;;19.45;13.00;;;;;;;;;;5009248;28;20371;-58
2023/05/19 12:20:03;;;;;;;17.20;13.60;;;;;;;;;;5008839;28;20037;-60
2023/05/19 12:22:29;;;;;;;19.15;13.68;;;;;;;;;;5009329;28;20025;-58
2023/05/19 12:24:55;;;;;;;17.73;13.93;;;;;;;;;;5008822;28;20026;-59
2023/05/19 12:27:27;;;;;;;17.92;12.90;;;;;;;;;;5011697;28;20018;-60
2023/05/19 12:29:54;;;;;;;18.38;13.32;;;;;;;;;;5012900;28;20041;-60
2023/05/19 12:32:29;;;;;;;18.92;13.43;;;;;;;;;;5012752;28;20034;-59
2023/05/19 12:34:56;;;;;;;18.92;13.45;;;;;;;;;;4994844;28;20038;-59
2023/05/19 12:37:22;;;;;;;17.95;13.02;;;;;;;;;;4995428;28;20040;-61
2023/05/19 12:39:48;;;;;;;18.02;13.02;;;;;;;;;;5013199;28;20029;-59
2023/05/19 12:42:15;;;;;;;17.20;12.60;;;;;;;;;;5013079;28;20409;-62
2023/05/19 12:44:51;;;;;;;17.63;12.48;;;;;;;;;;4995255;28;20028;-60
2023/05/19 12:47:21;;;;;;;18.13;13.10;;;;;;;;;;5012980;28;20018;-60
2023/05/19 12:49:57;;;;;;;17.55;12.70;;;;;;;;;;5012950;28;20117;-60
2023/05/19 12:52:23;;;;;;;17.98;13.45;;;;;;;;;;5012266;28;20065;-60
2023/05/19 12:54:51;;;;;;;18.88;13.60;;;;;;;;;;5013119;28;20030;-53
2023/05/19 12:57:17;;;;;;;17.83;12.32;;;;;;;;;;5013100;28;20061;-57
2023/05/19 12:59:43;;;;;;;17.42;12.50;;;;;;;;;;5013043;28;20061;-59
2023/05/19 13:02:09;;;;;;;18.55;13.18;;;;;;;;;;5013876;28;20030;-59
2023/05/19 13:04:35;;;;;;;17.92;12.77;;;;;;;;;;5014145;28;20074;-60
2023/05/19 13:07:01;;;;;;;17.50;12.85;;;;;;;;;;5014573;28;20099;-59
2023/05/19 13:09:27;;;;;;;19.42;12.82;;;;;;;;;;5014118;28;20457;-59
2023/05/19 13:11:54;;;;;;;16.65;12.93;;;;;;;;;;5014530;28;20079;-66
2023/05/19 13:14:20;;;;;;;18.70;13.32;;;;;;;;;;5013933;28;20030;-62
2023/05/19 13:16:46;;;;;;;17.63;12.70;;;;;;;;;;5013039;28;20374;-62
2023/05/19 13:19:17;;;;;;;17.40;12.20;;;;;;;;;;5012990;28;20088;-62
2023/05/19 13:21:45;;;;;;;16.85;12.10;;;;;;;;;;5012907;28;20033;-60
2023/05/19 13:24:11;;;;;;;;;;;;;;;;;;5011080;28;20054;-62
2023/05/19 13:26:37;;;;;;;16.85;13.02;;;;;;;;;;5012793;28;20297;-60
2023/05/19 13:29:03;;;;;;;18.27;12.93;;;;;;;;;;5012689;28;20105;-60
2023/05/19 13:31:29;;;;;;;20.80;13.00;;;;;;;;;;5012358;28;20022;-61
2023/05/19 13:33:55;;;;;;;17.85;13.07;;;;;;;;;;5012056;28;20546;-61
2023/05/19 13:36:21;;;;;;;17.10;12.85;;;;;;;;;;5012362;28;20482;-61
2023/05/19 13:38:47;;;;;;;18.50;12.98;;;;;;;;;;5011115;28;20075;-62
2023/05/19 13:41:13;;;;;;;19.13;13.50;;;;;;;;;;5012125;28;20053;-61
2023/05/19 13:43:39;;;;;;;17.77;13.20;;;;;;;;;;5022806;28;20029;-58
2023/05/19 13:46:05;;;;;;;19.58;12.95;;;;;;;;;;5031477;28;20434;-59
2023/05/19 13:48:31;;;;;;;18.05;12.63;;;;;;;;;;5001342;28;20033;-61
2023/05/19 13:50:58;;;;;;;17.50;13.05;;;;;;;;;;5016112;28;20022;-61
2023/05/19 13:53:25;;;;;;;18.05;12.48;;;;;;;;;;5016642;28;20048;-59
2023/05/19 13:55:53;;;;;;;18.75;13.05;;;;;;;;;;5030270;28;20062;-62
2023/05/19 13:58:19;;;;;;;17.38;13.07;;;;;;;;;;5013574;28;20453;-57
2023/05/19 14:00:45;;;;;;;16.55;13.10;;;;;;;;;;5031071;28;20028;-61
2023/05/19 14:03:14;;;;;;;18.25;13.50;;;;;;;;;;5030577;28;20037;-61
2023/05/19 14:05:40;;;;;;;16.38;13.07;;;;;;;;;;5030003;28;20037;-59
2023/05/19 14:08:07;;;;;;;17.98;13.50;;;;;;;;;;5030540;28;20028;-61
2023/05/19 14:10:33;;;;;;;17.42;13.57;;;;;;;;;;5030374;28;20091;-59
2023/05/19 14:12:59;;;;;;;18.83;13.20;;;;;;;;;;5030328;28;20025;-59
2023/05/19 14:15:25;;;;;;;18.17;13.43;;;;;;;;;;5010043;28;20113;-61
2023/05/19 14:17:52;;;;;;;19.02;13.10;;;;;;;;;;4993322;28;20057;-59
2023/05/19 14:20:18;;;;;;;19.55;13.25;;;;;;;;;;5011263;28;20062;-61